createdAt,value
2022-10-26T00:01:19.036Z,77.73
2022-10-26T00:03:48.137Z,77.99
2022-10-26T00:06:19.287Z,77.85
2022-10-26T00:08:49.738Z,78.16
2022-10-26T00:11:18.791Z,77.95
2022-10-26T00:13:48.195Z,78.00
2022-10-26T00:16:19.003Z,78.08
2022-10-26T00:18:47.792Z,78.09
2022-10-26T00:21:16.284Z,77.77
2022-10-26T00:23:44.710Z,77.95
2022-10-26T00:26:14.504Z,78.10
2022-10-26T00:28:43.208Z,78.28
2022-10-26T00:31:14.682Z,78.31
2022-10-26T00:33:43.011Z,78.07
2022-10-26T00:36:13.889Z,78.26
2022-10-26T00:38:45.942Z,78.16
2022-10-26T00:41:17.983Z,78.31
2022-10-26T00:43:46.523Z,78.46
2022-10-26T00:46:18.267Z,78.14
2022-10-26T00:48:51.083Z,78.16
2022-10-26T00:51:26.575Z,78.05
2022-10-26T00:53:56.559Z,77.86
2022-10-26T00:56:26.551Z,78.13
2022-10-26T00:58:56.508Z,77.96
2022-10-26T01:01:24.963Z,78.13
2022-10-26T01:03:54.683Z,78.10
2022-10-26T01:06:23.229Z,77.97
2022-10-26T01:08:51.899Z,77.84
2022-10-26T01:11:20.845Z,77.76
2022-10-26T01:13:53.589Z,77.69
2022-10-26T01:16:42.034Z,77.57
2022-10-26T01:19:47.790Z,77.61
2022-10-26T01:22:19.948Z,77.49
2022-10-26T01:25:03.899Z,77.31
2022-10-26T01:27:36.585Z,77.46
2022-10-26T01:30:32.684Z,77.47
2022-10-26T01:33:16.386Z,77.14
2022-10-26T01:35:53.627Z,77.33
2022-10-26T01:38:30.832Z,77.11
2022-10-26T01:41:06.008Z,77.40
2022-10-26T01:43:38.656Z,77.18
2022-10-26T01:46:10.773Z,76.92
2022-10-26T01:48:41.444Z,77.07
2022-10-26T01:51:11.319Z,76.75
2022-10-26T01:53:46.782Z,77.12
2022-10-26T01:56:20.736Z,77.18
2022-10-26T01:59:05.404Z,77.00
2022-10-26T02:01:57.031Z,77.17
2022-10-26T02:04:39.238Z,76.85
2022-10-26T02:07:19.128Z,76.86
2022-10-26T02:09:59.467Z,76.82
2022-10-26T02:12:39.290Z,76.57
2022-10-26T02:15:13.376Z,76.56
2022-10-26T02:17:49.927Z,76.71
2022-10-26T02:20:23.284Z,77.08
2022-10-26T02:22:53.816Z,76.69
2022-10-26T02:25:26.936Z,76.65
2022-10-26T02:27:59.433Z,76.65
2022-10-26T02:30:28.156Z,76.64
2022-10-26T02:33:01.233Z,77.12
2022-10-26T02:35:32.640Z,77.02
2022-10-26T02:38:03.820Z,77.12
2022-10-26T02:40:35.447Z,77.07
2022-10-26T02:43:07.606Z,77.44
2022-10-26T02:45:40.468Z,77.47
2022-10-26T02:48:12.148Z,77.23
2022-10-26T02:50:51.933Z,77.40
2022-10-26T02:53:26.936Z,77.45
2022-10-26T02:55:55.383Z,77.43
2022-10-26T02:58:28.798Z,77.38
2022-10-26T03:00:58.258Z,77.66
2022-10-26T03:03:27.999Z,77.93
2022-10-26T03:05:56.391Z,78.17
2022-10-26T03:08:25.161Z,78.29
2022-10-26T03:10:53.512Z,78.62
2022-10-26T03:13:21.892Z,78.66
2022-10-26T03:15:50.232Z,78.79
2022-10-26T03:18:18.763Z,78.76
2022-10-26T03:20:57.925Z,78.70
2022-10-26T03:23:26.267Z,78.83
2022-10-26T03:25:58.119Z,78.29
2022-10-26T03:28:26.697Z,78.20
2022-10-26T03:30:55.087Z,78.32
2022-10-26T03:33:27.027Z,78.33
2022-10-26T03:35:58.163Z,78.44
2022-10-26T03:38:26.499Z,78.07
2022-10-26T03:40:54.827Z,78.22
2022-10-26T03:43:23.187Z,78.30
2022-10-26T03:45:51.527Z,78.58
2022-10-26T03:48:19.852Z,78.61
2022-10-26T03:50:48.221Z,78.52
2022-10-26T03:53:17.874Z,78.58
2022-10-26T03:55:46.482Z,78.73
2022-10-26T03:58:14.903Z,78.75
2022-10-26T04:00:43.257Z,78.77
2022-10-26T04:03:11.624Z,78.85
2022-10-26T04:05:39.997Z,78.67
2022-10-26T04:08:09.704Z,78.63
2022-10-26T04:10:39.396Z,78.47
2022-10-26T04:13:07.840Z,78.46
2022-10-26T04:15:36.224Z,78.58
2022-10-26T04:18:04.937Z,78.67
2022-10-26T04:20:35.020Z,78.36
2022-10-26T04:23:05.358Z,78.52
2022-10-26T04:25:34.749Z,78.46
2022-10-26T04:28:06.436Z,78.25
2022-10-26T04:30:35.921Z,78.45
2022-10-26T04:33:04.747Z,78.16
2022-10-26T04:35:33.232Z,78.45
2022-10-26T04:38:02.597Z,78.38
2022-10-26T04:40:32.796Z,78.12
2022-10-26T04:43:01.352Z,78.04
2022-10-26T04:45:31.772Z,77.94
2022-10-26T04:48:01.259Z,78.02
2022-10-26T04:50:29.647Z,77.87
2022-10-26T04:52:58.116Z,77.97
2022-10-26T04:55:27.028Z,77.88
2022-10-26T04:57:57.306Z,77.61
2022-10-26T05:00:39.695Z,77.48
2022-10-26T05:03:08.976Z,77.63
2022-10-26T05:05:37.774Z,77.63
2022-10-26T05:08:06.677Z,77.57
2022-10-26T05:10:35.356Z,77.57
2022-10-26T05:13:03.735Z,77.67
2022-10-26T05:15:32.421Z,77.51
2022-10-26T05:18:03.861Z,77.69
2022-10-26T05:20:34.692Z,77.65
2022-10-26T05:23:04.943Z,77.53
2022-10-26T05:25:35.894Z,77.64
2022-10-26T05:28:07.953Z,77.45
2022-10-26T05:30:38.854Z,77.78
2022-10-26T05:33:10.675Z,77.88
2022-10-26T05:35:39.341Z,77.83
2022-10-26T05:38:10.781Z,78.00
2022-10-26T05:40:39.237Z,77.75
2022-10-26T05:43:07.545Z,77.91
2022-10-26T05:45:35.959Z,78.07
2022-10-26T05:48:04.314Z,78.06
2022-10-26T05:50:33.988Z,77.83
2022-10-26T05:53:02.353Z,78.08
2022-10-26T05:55:31.499Z,77.93
2022-10-26T05:58:00.365Z,77.89
2022-10-26T06:00:30.534Z,78.29
2022-10-26T06:03:13.907Z,78.23
2022-10-26T06:05:52.291Z,78.22
2022-10-26T06:08:21.359Z,78.34
2022-10-26T06:10:50.893Z,78.35
2022-10-26T06:13:19.823Z,78.20
2022-10-26T06:16:02.601Z,78.46
2022-10-26T06:18:40.880Z,78.66
2022-10-26T06:21:25.257Z,78.65
2022-10-26T06:23:59.503Z,78.48
2022-10-26T06:26:40.842Z,78.74
2022-10-26T06:29:20.304Z,78.53
2022-10-26T06:31:49.155Z,78.41
2022-10-26T06:34:24.042Z,78.49
2022-10-26T06:39:30.786Z,78.21
2022-10-26T06:41:59.824Z,78.37
2022-10-26T06:44:29.149Z,78.22
2022-10-26T06:47:07.092Z,77.98
2022-10-26T06:49:39.973Z,78.09
2022-10-26T06:52:17.193Z,77.91
2022-10-26T06:54:51.316Z,78.15
2022-10-26T06:57:21.642Z,77.85
2022-10-26T06:59:52.728Z,77.92
2022-10-26T07:02:21.569Z,77.99
2022-10-26T07:04:50.123Z,78.07
2022-10-26T07:07:22.007Z,77.89
2022-10-26T07:09:51.120Z,77.85
2022-10-26T07:12:19.733Z,77.91
2022-10-26T07:14:48.143Z,77.75
2022-10-26T07:17:17.102Z,77.49
2022-10-26T07:19:45.837Z,77.46
2022-10-26T07:22:14.151Z,77.76
2022-10-26T07:24:43.847Z,77.53
2022-10-26T07:27:12.239Z,77.54
2022-10-26T07:29:40.614Z,77.20
2022-10-26T07:32:09.888Z,77.35
2022-10-26T07:34:38.581Z,77.35
2022-10-26T07:37:07.359Z,76.93
2022-10-26T07:39:35.769Z,76.79
2022-10-26T07:42:05.758Z,77.12
2022-10-26T07:44:34.229Z,77.05
2022-10-26T07:47:02.627Z,77.20
2022-10-26T07:49:30.975Z,76.70
2022-10-26T07:51:59.321Z,77.02
2022-10-26T07:54:27.930Z,77.01
2022-10-26T07:56:56.671Z,76.90
2022-10-26T07:59:26.516Z,76.71
2022-10-26T08:01:57.195Z,76.62
2022-10-26T08:04:25.588Z,76.40
2022-10-26T08:06:53.948Z,76.03
2022-10-26T08:09:22.364Z,76.01
2022-10-26T08:11:50.760Z,76.13
2022-10-26T08:14:19.159Z,75.91
2022-10-26T08:16:52.444Z,75.93
2022-10-26T08:19:21.284Z,75.78
2022-10-26T08:21:49.667Z,75.99
2022-10-26T08:24:18.020Z,76.06
2022-10-26T08:26:46.589Z,75.81
2022-10-26T08:29:14.896Z,75.50
2022-10-26T08:31:43.728Z,75.86
2022-10-26T08:34:13.520Z,75.44
2022-10-26T08:36:41.981Z,75.69
2022-10-26T08:39:10.416Z,75.57
2022-10-26T08:41:43.159Z,75.68
2022-10-26T08:44:25.915Z,75.48
2022-10-26T08:46:58.001Z,75.52
2022-10-26T08:49:31.777Z,75.32
2022-10-26T08:52:03.733Z,75.19
2022-10-26T08:54:38.331Z,75.17
2022-10-26T08:57:17.244Z,75.03
2022-10-26T08:59:49.962Z,75.20
2022-10-26T09:02:19.108Z,75.08
2022-10-26T09:04:49.132Z,75.26
2022-10-26T09:07:34.711Z,75.01
2022-10-26T09:10:13.810Z,74.95
2022-10-26T09:12:49.883Z,74.71
2022-10-26T09:15:28.074Z,74.70
2022-10-26T09:18:05.468Z,74.47
2022-10-26T09:20:50.940Z,74.46
2022-10-26T09:23:37.655Z,74.29
2022-10-26T09:26:11.727Z,74.30
2022-10-26T09:28:42.559Z,73.75
2022-10-26T09:31:16.416Z,73.53
2022-10-26T09:33:44.807Z,73.38
2022-10-26T09:36:20.313Z,73.13
2022-10-26T09:38:54.893Z,72.59
2022-10-26T09:41:31.796Z,72.24
2022-10-26T09:44:07.917Z,72.07
2022-10-26T09:46:46.708Z,72.16
2022-10-26T09:49:18.780Z,72.14
2022-10-26T09:51:49.659Z,71.87
2022-10-26T09:54:19.621Z,71.78
2022-10-26T09:56:53.093Z,71.67
2022-10-26T09:59:23.678Z,71.48
2022-10-26T10:01:52.208Z,71.08
2022-10-26T10:04:24.105Z,71.16
2022-10-26T10:07:13.236Z,71.27
2022-10-26T10:09:41.612Z,71.53
2022-10-26T10:12:20.402Z,71.38
2022-10-26T10:14:58.519Z,71.92
2022-10-26T10:17:27.513Z,71.81
2022-10-26T10:19:56.031Z,71.64
2022-10-26T10:22:27.531Z,71.61
2022-10-26T10:24:57.945Z,71.74
2022-10-26T10:27:28.188Z,71.83
2022-10-26T10:30:01.436Z,71.66
2022-10-26T10:32:36.990Z,71.55
2022-10-26T10:35:26.051Z,71.46
2022-10-26T10:37:55.737Z,71.45
2022-10-26T10:40:27.156Z,71.37
2022-10-26T10:43:04.405Z,71.03
2022-10-26T10:45:33.437Z,71.16
2022-10-26T10:48:04.244Z,71.40
2022-10-26T10:50:34.560Z,71.13
2022-10-26T10:53:20.303Z,70.88
2022-10-26T10:55:59.745Z,70.85
2022-10-26T10:58:38.388Z,70.61
2022-10-26T11:01:14.072Z,70.68
2022-10-26T11:03:55.520Z,70.27
2022-10-26T11:06:28.780Z,69.97
2022-10-26T11:09:04.003Z,69.70
2022-10-26T11:11:41.704Z,69.54
2022-10-26T11:14:18.156Z,69.61
2022-10-26T11:16:51.539Z,69.90
2022-10-26T11:19:24.717Z,70.14
2022-10-26T11:21:55.487Z,69.99
2022-10-26T11:24:30.035Z,70.03
2022-10-26T11:27:05.020Z,70.18
2022-10-26T11:29:41.664Z,70.06
2022-10-26T11:32:17.947Z,70.06
2022-10-26T11:34:51.942Z,69.91
2022-10-26T11:37:28.567Z,69.79
2022-10-26T11:40:09.767Z,69.80
2022-10-26T11:42:45.884Z,69.96
2022-10-26T11:45:20.944Z,70.29
2022-10-26T11:47:54.947Z,70.58
2022-10-26T11:50:26.655Z,70.69
2022-10-26T11:53:00.725Z,70.92
2022-10-26T11:55:31.267Z,70.98
2022-10-26T11:58:00.143Z,70.90
2022-10-26T12:00:31.069Z,70.93
2022-10-26T12:03:11.460Z,70.80
2022-10-26T12:05:48.344Z,71.04
2022-10-26T12:08:23.198Z,71.17
2022-10-26T12:11:01.694Z,70.92
2022-10-26T12:13:38.001Z,70.83
2022-10-26T12:16:14.148Z,70.52
2022-10-26T12:18:55.873Z,70.47
2022-10-26T12:21:28.677Z,70.29
2022-10-26T12:24:00.001Z,70.38
2022-10-26T12:26:59.648Z,70.26
2022-10-26T12:29:47.012Z,70.16
2022-10-26T12:32:49.278Z,70.04
2022-10-26T12:35:36.193Z,70.10
2022-10-26T12:38:50.859Z,70.34
2022-10-26T12:41:24.850Z,70.51
2022-10-26T12:43:59.340Z,70.66
2022-10-26T12:46:43.278Z,70.26
2022-10-26T12:49:57.239Z,70.47
2022-10-26T12:52:49.062Z,70.53
2022-10-26T12:55:54.051Z,70.75
2022-10-26T12:58:36.443Z,70.81
2022-10-26T13:01:37.462Z,70.96
2022-10-26T13:04:27.682Z,71.13
2022-10-26T13:07:16.736Z,71.18
2022-10-26T13:09:47.441Z,71.21
2022-10-26T13:12:16.140Z,71.38
2022-10-26T13:14:58.452Z,71.50
2022-10-26T13:17:31.499Z,71.61
2022-10-26T13:20:01.977Z,71.86
2022-10-26T13:22:31.061Z,71.93
2022-10-26T13:25:02.222Z,72.08
2022-10-26T13:27:45.085Z,72.29
2022-10-26T13:30:44.109Z,72.36
2022-10-26T13:33:20.890Z,72.33
2022-10-26T13:35:50.416Z,72.51
2022-10-26T13:38:22.541Z,72.89
2022-10-26T13:40:51.334Z,73.05
2022-10-26T13:43:23.605Z,72.91
2022-10-26T13:45:56.423Z,72.94
2022-10-26T13:48:32.830Z,73.31
2022-10-26T13:51:04.426Z,73.46
2022-10-26T13:53:41.388Z,73.23
2022-10-26T13:56:20.588Z,73.16
2022-10-26T13:58:52.783Z,73.23
2022-10-26T14:01:23.103Z,73.19
2022-10-26T14:03:53.076Z,73.06
2022-10-26T14:06:27.596Z,73.28
2022-10-26T14:08:59.313Z,73.05
2022-10-26T14:11:33.711Z,72.82
2022-10-26T14:14:03.816Z,72.85
2022-10-26T14:16:35.423Z,72.92
2022-10-26T14:19:05.222Z,72.94
2022-10-26T14:21:33.868Z,73.17
2022-10-26T14:24:07.534Z,73.11
2022-10-26T14:26:41.486Z,72.95
2022-10-26T14:29:18.326Z,72.82
2022-10-26T14:31:46.834Z,72.82
2022-10-26T14:34:17.760Z,72.59
2022-10-26T14:36:49.832Z,72.64
2022-10-26T14:39:25.205Z,72.49
2022-10-26T14:41:56.101Z,72.43
2022-10-26T14:44:27.256Z,72.26
2022-10-26T14:46:55.617Z,72.32
2022-10-26T14:49:27.674Z,72.20
2022-10-26T14:51:58.949Z,72.17
2022-10-26T14:54:29.964Z,72.21
2022-10-26T14:56:58.596Z,72.26
2022-10-26T14:59:29.278Z,72.17
2022-10-26T15:02:00.048Z,72.15
2022-10-26T15:04:32.740Z,72.16
2022-10-26T15:07:10.438Z,72.07
2022-10-26T15:09:42.859Z,72.27
2022-10-26T15:12:28.409Z,72.21
2022-10-26T15:14:57.849Z,72.31
2022-10-26T15:17:32.164Z,72.08
2022-10-26T15:20:06.804Z,71.93
2022-10-26T15:22:35.670Z,71.92
2022-10-26T15:25:06.395Z,72.07
2022-10-26T15:27:34.975Z,72.32
2022-10-26T15:30:24.845Z,72.48
2022-10-26T15:32:54.624Z,72.68
2022-10-26T15:35:28.464Z,72.56
2022-10-26T15:37:58.245Z,72.66
2022-10-26T15:40:29.058Z,72.63
2022-10-26T15:43:01.217Z,72.60
2022-10-26T15:45:33.036Z,72.69
2022-10-26T15:48:19.311Z,72.76
2022-10-26T15:50:49.139Z,72.71
2022-10-26T15:53:22.765Z,72.56
2022-10-26T15:55:53.638Z,72.88
2022-10-26T15:58:22.506Z,73.00
2022-10-26T16:00:50.907Z,73.08
2022-10-26T16:03:23.038Z,73.15
2022-10-26T16:05:57.457Z,73.03
2022-10-26T16:08:27.776Z,73.26
2022-10-26T16:10:56.224Z,73.28
2022-10-26T16:13:24.537Z,73.48
2022-10-26T16:15:52.863Z,73.59
2022-10-26T16:18:21.264Z,73.88
2022-10-26T16:20:49.693Z,73.69
2022-10-26T16:23:19.608Z,73.75
2022-10-26T16:25:48.399Z,73.61
2022-10-26T16:28:17.744Z,73.81
2022-10-26T16:30:46.175Z,73.69
2022-10-26T16:33:14.756Z,73.82
2022-10-26T16:35:43.361Z,74.03
2022-10-26T16:38:11.798Z,74.03
2022-10-26T16:40:43.240Z,73.90
2022-10-26T16:43:11.696Z,74.07
2022-10-26T16:45:41.328Z,74.14
2022-10-26T16:48:14.465Z,74.02
2022-10-26T16:50:42.968Z,74.20
2022-10-26T16:53:11.518Z,74.11
2022-10-26T16:58:14.456Z,74.07
2022-10-26T17:00:42.836Z,74.17
2022-10-26T17:03:11.195Z,74.29
2022-10-26T17:05:39.540Z,74.43
2022-10-26T17:08:08.482Z,74.35
2022-10-26T17:10:36.845Z,74.41
2022-10-26T17:13:06.829Z,74.52
2022-10-26T17:15:35.181Z,74.59
2022-10-26T17:18:03.552Z,74.81
2022-10-26T17:20:31.909Z,74.83
2022-10-26T17:23:00.384Z,74.59
2022-10-26T17:25:28.784Z,74.83
2022-10-26T17:27:57.243Z,74.71
2022-10-26T17:30:28.511Z,74.71
2022-10-26T17:32:59.190Z,74.49
2022-10-26T17:35:27.620Z,74.79
2022-10-26T17:37:56.010Z,75.02
2022-10-26T17:40:24.403Z,74.70
2022-10-26T17:42:52.729Z,74.85
2022-10-26T17:45:21.202Z,75.17
2022-10-26T17:47:51.357Z,74.94
2022-10-26T17:50:20.138Z,75.16
2022-10-26T17:52:48.668Z,75.24
2022-10-26T17:55:17.197Z,75.60
2022-10-26T17:57:45.761Z,75.55
2022-10-26T18:00:15.431Z,75.54
2022-10-26T18:02:44.056Z,75.67
2022-10-26T18:05:14.126Z,75.84
2022-10-26T18:07:42.489Z,75.85
2022-10-26T18:10:26.297Z,75.85
2022-10-26T18:12:59.661Z,76.16
2022-10-26T18:15:28.249Z,76.09
2022-10-26T18:17:58.643Z,76.12
2022-10-26T18:20:30.419Z,76.15
2022-10-26T18:22:58.846Z,76.33
2022-10-26T18:25:28.034Z,76.06
2022-10-26T18:27:56.596Z,76.57
2022-10-26T18:30:25.345Z,76.63
2022-10-26T18:32:54.286Z,76.63
2022-10-26T18:35:24.105Z,76.88
2022-10-26T18:37:54.113Z,76.90
2022-10-26T18:40:22.773Z,76.71
2022-10-26T18:42:51.195Z,76.95
2022-10-26T18:45:19.560Z,76.98
2022-10-26T18:47:48.126Z,76.87
2022-10-26T18:50:16.996Z,76.83
2022-10-26T18:52:46.236Z,76.94
2022-10-26T18:55:16.096Z,77.30
2022-10-26T18:57:44.575Z,77.22
2022-10-26T19:00:14.471Z,77.33
2022-10-26T19:02:42.857Z,77.33
2022-10-26T19:05:11.227Z,77.43
2022-10-26T19:07:40.037Z,77.54
2022-10-26T19:10:09.828Z,77.58
2022-10-26T19:12:39.579Z,77.47
2022-10-26T19:15:08.653Z,77.58
2022-10-26T19:17:37.077Z,77.83
2022-10-26T19:20:06.504Z,77.62
2022-10-26T19:22:34.860Z,77.87
2022-10-26T19:25:03.860Z,77.74
2022-10-26T19:27:34.509Z,77.88
2022-10-26T19:30:04.444Z,77.85
2022-10-26T19:32:32.820Z,77.78
2022-10-26T19:35:01.724Z,77.79
2022-10-26T19:37:31.192Z,78.03
2022-10-26T19:39:59.790Z,77.93
2022-10-26T19:42:28.242Z,78.07
2022-10-26T19:44:56.609Z,78.00
2022-10-26T19:47:26.868Z,77.88
2022-10-26T19:49:55.338Z,78.21
2022-10-26T19:52:23.681Z,78.35
2022-10-26T19:54:52.325Z,78.21
2022-10-26T19:57:20.837Z,78.32
2022-10-26T19:59:49.187Z,78.38
2022-10-26T20:02:17.598Z,78.68
2022-10-26T20:04:47.302Z,78.63
2022-10-26T20:07:15.875Z,78.83
2022-10-26T20:09:44.234Z,78.85
2022-10-26T20:12:13.912Z,79.10
2022-10-26T20:14:42.380Z,78.91
2022-10-26T20:17:10.837Z,78.95
2022-10-26T20:19:39.152Z,79.27
2022-10-26T20:22:08.841Z,79.09
2022-10-26T20:24:39.639Z,79.45
2022-10-26T20:27:08.009Z,79.15
2022-10-26T20:29:36.382Z,79.40
2022-10-26T20:32:04.848Z,79.54
2022-10-26T20:34:33.222Z,79.55
2022-10-26T20:37:01.623Z,79.68
2022-10-26T20:39:31.973Z,79.73
2022-10-26T20:42:00.965Z,79.60
2022-10-26T20:44:34.510Z,79.65
2022-10-26T20:47:03.399Z,79.75
2022-10-26T20:49:32.411Z,79.88
2022-10-26T20:52:20.600Z,79.94
2022-10-26T20:54:57.051Z,80.05
2022-10-26T20:57:31.817Z,80.12
2022-10-26T21:00:04.232Z,80.00
2022-10-26T21:02:32.848Z,80.13
2022-10-26T21:05:01.161Z,80.23
2022-10-26T21:07:29.621Z,80.30
2022-10-26T21:09:59.307Z,80.48
2022-10-26T21:12:27.681Z,80.22
2022-10-26T21:14:56.044Z,80.35
2022-10-26T21:17:24.448Z,80.66
2022-10-26T21:19:52.813Z,80.36
2022-10-26T21:22:21.188Z,80.46
2022-10-26T21:24:49.612Z,80.32
2022-10-26T21:27:19.334Z,80.44
2022-10-26T21:29:47.677Z,80.62
2022-10-26T21:32:16.036Z,80.46
2022-10-26T21:34:44.352Z,80.43
2022-10-26T21:37:12.831Z,80.61
2022-10-26T21:39:41.276Z,80.73
2022-10-26T21:42:09.870Z,80.83
2022-10-26T21:44:41.275Z,80.77
2022-10-26T21:47:10.512Z,80.95
2022-10-26T21:49:39.102Z,80.93
2022-10-26T21:52:08.538Z,81.03
2022-10-26T21:54:36.958Z,80.99
2022-10-26T21:57:05.484Z,80.82
2022-10-26T21:59:33.853Z,80.99
2022-10-26T22:02:07.745Z,81.20
2022-10-26T22:04:39.863Z,80.74
2022-10-26T22:07:08.216Z,80.69
2022-10-26T22:09:44.901Z,80.92
2022-10-26T22:12:25.118Z,80.95
2022-10-26T22:14:53.580Z,80.76
2022-10-26T22:17:23.299Z,80.92
2022-10-26T22:19:51.652Z,81.13
2022-10-26T22:22:20.029Z,80.94
2022-10-26T22:24:48.433Z,81.11
2022-10-26T22:27:17.110Z,81.09
2022-10-26T22:29:45.417Z,81.22
2022-10-26T22:32:13.754Z,81.33
2022-10-26T22:34:43.479Z,81.62
2022-10-26T22:37:11.771Z,81.35
2022-10-26T22:39:40.419Z,81.59
2022-10-26T22:42:08.743Z,81.51
2022-10-26T22:44:37.523Z,81.76
2022-10-26T22:47:05.905Z,81.49
2022-10-26T22:49:34.257Z,81.38
2022-10-26T22:52:03.976Z,81.80
2022-10-26T22:54:32.475Z,81.89
2022-10-26T22:57:00.756Z,81.92
2022-10-26T22:59:29.094Z,81.57
2022-10-26T23:01:57.565Z,81.87
2022-10-26T23:04:26.036Z,81.75
2022-10-26T23:06:54.392Z,81.90
2022-10-26T23:09:24.121Z,81.77
2022-10-26T23:11:52.459Z,81.78
2022-10-26T23:14:20.775Z,81.85
2022-10-26T23:16:49.133Z,81.65
2022-10-26T23:19:17.485Z,81.65
2022-10-26T23:21:45.819Z,81.82
2022-10-26T23:24:14.199Z,81.88
2022-10-26T23:26:43.960Z,81.92
2022-10-26T23:29:12.252Z,82.02
2022-10-26T23:31:40.607Z,82.20
2022-10-26T23:34:10.352Z,81.94
2022-10-26T23:36:38.707Z,81.99
2022-10-26T23:39:07.083Z,82.14
2022-10-26T23:41:35.403Z,82.05
2022-10-26T23:44:05.582Z,81.92
2022-10-26T23:46:34.112Z,81.98
2022-10-26T23:49:02.637Z,81.72
2022-10-26T23:51:30.945Z,81.75
2022-10-26T23:53:59.268Z,82.01
2022-10-26T23:56:27.705Z,82.27
2022-10-26T23:58:56.045Z,81.87
